sensor_id;sensor_type;location;lat;lon;timestamp;temperature;humidity
28530;DHT22;15737;49.760;6.632;2023-02-27T00:01:45;-0.60;86.50
28530;DHT22;15737;49.760;6.632;2023-02-27T00:04:11;-0.70;86.60
28530;DHT22;15737;49.760;6.632;2023-02-27T00:06:37;-0.70;86.70
28530;DHT22;15737;49.760;6.632;2023-02-27T00:09:03;-0.70;86.80
28530;DHT22;15737;49.760;6.632;2023-02-27T00:11:28;-0.70;86.90
28530;DHT22;15737;49.760;6.632;2023-02-27T00:13:54;-0.70;86.90
28530;DHT22;15737;49.760;6.632;2023-02-27T00:16:20;-0.70;87.00
28530;DHT22;15737;49.760;6.632;2023-02-27T00:18:45;-0.70;87.10
28530;DHT22;15737;49.760;6.632;2023-02-27T00:21:11;-0.70;87.10
28530;DHT22;15737;49.760;6.632;2023-02-27T00:23:36;-0.70;87.20
28530;DHT22;15737;49.760;6.632;2023-02-27T00:26:02;-0.70;87.50
28530;DHT22;15737;49.760;6.632;2023-02-27T00:28:28;-0.70;87.50
28530;DHT22;15737;49.760;6.632;2023-02-27T00:30:54;-0.70;87.70
28530;DHT22;15737;49.760;6.632;2023-02-27T00:33:20;-0.70;87.80
28530;DHT22;15737;49.760;6.632;2023-02-27T00:35:54;-0.70;87.80
28530;DHT22;15737;49.760;6.632;2023-02-27T00:38:20;-0.70;87.90
28530;DHT22;15737;49.760;6.632;2023-02-27T00:40:45;-0.70;88.00
28530;DHT22;15737;49.760;6.632;2023-02-27T00:43:11;-0.80;88.10
28530;DHT22;15737;49.760;6.632;2023-02-27T00:45:36;-0.80;88.40
28530;DHT22;15737;49.760;6.632;2023-02-27T00:48:02;-0.80;88.50
28530;DHT22;15737;49.760;6.632;2023-02-27T00:50:27;-0.80;88.40
28530;DHT22;15737;49.760;6.632;2023-02-27T00:52:53;-0.90;88.50
28530;DHT22;15737;49.760;6.632;2023-02-27T00:55:18;-0.90;88.70
28530;DHT22;15737;49.760;6.632;2023-02-27T00:57:44;-0.90;88.80
28530;DHT22;15737;49.760;6.632;2023-02-27T01:00:10;-0.90;89.00
28530;DHT22;15737;49.760;6.632;2023-02-27T01:02:36;-1.00;89.20
28530;DHT22;15737;49.760;6.632;2023-02-27T01:05:01;-0.90;89.30
28530;DHT22;15737;49.760;6.632;2023-02-27T01:07:27;-0.90;89.20
28530;DHT22;15737;49.760;6.632;2023-02-27T01:09:52;-0.90;89.30
28530;DHT22;15737;49.760;6.632;2023-02-27T01:12:18;-1.00;89.40
28530;DHT22;15737;49.760;6.632;2023-02-27T01:14:44;-1.00;89.60
28530;DHT22;15737;49.760;6.632;2023-02-27T01:17:10;-1.00;89.70
28530;DHT22;15737;49.760;6.632;2023-02-27T01:19:35;-1.00;89.70
28530;DHT22;15737;49.760;6.632;2023-02-27T01:22:01;-0.90;89.80
28530;DHT22;15737;49.760;6.632;2023-02-27T01:24:26;-1.00;89.70
28530;DHT22;15737;49.760;6.632;2023-02-27T01:26:52;-1.00;89.70
28530;DHT22;15737;49.760;6.632;2023-02-27T01:29:17;-1.00;89.90
28530;DHT22;15737;49.760;6.632;2023-02-27T01:31:43;-1.00;89.80
28530;DHT22;15737;49.760;6.632;2023-02-27T01:34:08;-1.00;90.00
28530;DHT22;15737;49.760;6.632;2023-02-27T01:36:34;-1.00;90.40
28530;DHT22;15737;49.760;6.632;2023-02-27T01:38:59;-1.00;90.10
28530;DHT22;15737;49.760;6.632;2023-02-27T01:41:25;-1.10;90.10
28530;DHT22;15737;49.760;6.632;2023-02-27T01:44:05;-1.10;90.20
28530;DHT22;15737;49.760;6.632;2023-02-27T01:46:32;-1.00;90.30
28530;DHT22;15737;49.760;6.632;2023-02-27T01:49:17;-1.00;90.30
28530;DHT22;15737;49.760;6.632;2023-02-27T01:51:53;-1.10;90.40
28530;DHT22;15737;49.760;6.632;2023-02-27T01:54:24;-1.10;90.40
28530;DHT22;15737;49.760;6.632;2023-02-27T01:56:50;-1.10;90.50
28530;DHT22;15737;49.760;6.632;2023-02-27T01:59:17;-1.10;90.50
28530;DHT22;15737;49.760;6.632;2023-02-27T02:01:43;-1.10;90.60
28530;DHT22;15737;49.760;6.632;2023-02-27T02:04:26;-1.10;90.60
28530;DHT22;15737;49.760;6.632;2023-02-27T02:07:18;-1.20;90.70
28530;DHT22;15737;49.760;6.632;2023-02-27T02:09:51;-1.20;90.70
28530;DHT22;15737;49.760;6.632;2023-02-27T02:12:20;-1.20;90.70
28530;DHT22;15737;49.760;6.632;2023-02-27T02:14:46;-1.30;90.80
28530;DHT22;15737;49.760;6.632;2023-02-27T02:17:13;-1.20;90.90
28530;DHT22;15737;49.760;6.632;2023-02-27T02:40:23;-1.30;91.30
28530;DHT22;15737;49.760;6.632;2023-02-27T02:43:14;-1.30;91.30
28530;DHT22;15737;49.760;6.632;2023-02-27T02:45:48;-1.30;91.40
28530;DHT22;15737;49.760;6.632;2023-02-27T02:48:17;-1.30;91.40
28530;DHT22;15737;49.760;6.632;2023-02-27T02:51:19;-1.40;91.40
28530;DHT22;15737;49.760;6.632;2023-02-27T02:54:02;-1.40;91.50
28530;DHT22;15737;49.760;6.632;2023-02-27T02:59:08;-1.30;91.60
28530;DHT22;15737;49.760;6.632;2023-02-27T03:01:40;-1.30;91.60
28530;DHT22;15737;49.760;6.632;2023-02-27T03:04:34;-1.40;91.70
28530;DHT22;15737;49.760;6.632;2023-02-27T03:07:32;-1.40;91.80
28530;DHT22;15737;49.760;6.632;2023-02-27T03:10:03;-1.50;92.00
28530;DHT22;15737;49.760;6.632;2023-02-27T03:12:32;-1.40;92.00
28530;DHT22;15737;49.760;6.632;2023-02-27T03:15:04;-1.40;92.10
28530;DHT22;15737;49.760;6.632;2023-02-27T03:17:57;-1.50;92.00
28530;DHT22;15737;49.760;6.632;2023-02-27T03:20:29;-1.50;92.00
28530;DHT22;15737;49.760;6.632;2023-02-27T03:22:58;-1.50;92.20
28530;DHT22;15737;49.760;6.632;2023-02-27T03:25:29;-1.50;92.20
28530;DHT22;15737;49.760;6.632;2023-02-27T03:28:08;-1.50;92.10
28530;DHT22;15737;49.760;6.632;2023-02-27T03:30:41;-1.50;92.30
28530;DHT22;15737;49.760;6.632;2023-02-27T03:33:18;-1.50;92.40
28530;DHT22;15737;49.760;6.632;2023-02-27T03:36:09;-1.50;92.40
28530;DHT22;15737;49.760;6.632;2023-02-27T03:38:44;-1.50;92.50
28530;DHT22;15737;49.760;6.632;2023-02-27T03:41:30;-1.50;92.50
28530;DHT22;15737;49.760;6.632;2023-02-27T03:47:23;-1.50;92.60
28530;DHT22;15737;49.760;6.632;2023-02-27T03:49:49;-1.50;92.70
28530;DHT22;15737;49.760;6.632;2023-02-27T03:52:17;-1.50;92.70
28530;DHT22;15737;49.760;6.632;2023-02-27T03:54:49;-1.50;92.80
28530;DHT22;15737;49.760;6.632;2023-02-27T03:57:17;-1.50;92.80
28530;DHT22;15737;49.760;6.632;2023-02-27T03:59:42;-1.50;92.90
28530;DHT22;15737;49.760;6.632;2023-02-27T04:02:08;-1.60;93.00
28530;DHT22;15737;49.760;6.632;2023-02-27T04:04:34;-1.60;93.10
28530;DHT22;15737;49.760;6.632;2023-02-27T04:13:01;-1.60;93.30
28530;DHT22;15737;49.760;6.632;2023-02-27T04:21:37;-1.70;93.80
28530;DHT22;15737;49.760;6.632;2023-02-27T04:29:42;-1.80;94.10
28530;DHT22;15737;49.760;6.632;2023-02-27T04:32:30;-1.80;94.20
28530;DHT22;15737;49.760;6.632;2023-02-27T04:35:16;-1.80;94.20
28530;DHT22;15737;49.760;6.632;2023-02-27T04:37:55;-1.80;94.40
28530;DHT22;15737;49.760;6.632;2023-02-27T04:40:30;-1.70;94.40
28530;DHT22;15737;49.760;6.632;2023-02-27T04:42:58;-1.80;94.40
28530;DHT22;15737;49.760;6.632;2023-02-27T04:45:26;-1.80;94.50
28530;DHT22;15737;49.760;6.632;2023-02-27T04:47:59;-1.80;94.50
28530;DHT22;15737;49.760;6.632;2023-02-27T04:50:35;-1.80;94.50
28530;DHT22;15737;49.760;6.632;2023-02-27T04:53:32;-1.80;94.60
28530;DHT22;15737;49.760;6.632;2023-02-27T04:56:01;-1.80;94.70
28530;DHT22;15737;49.760;6.632;2023-02-27T04:58:39;-1.70;94.80
28530;DHT22;15737;49.760;6.632;2023-02-27T05:01:15;-1.80;94.80
28530;DHT22;15737;49.760;6.632;2023-02-27T05:03:47;-1.80;94.90
28530;DHT22;15737;49.760;6.632;2023-02-27T05:06:16;-1.80;94.90
28530;DHT22;15737;49.760;6.632;2023-02-27T05:08:55;-1.90;95.00
28530;DHT22;15737;49.760;6.632;2023-02-27T05:11:30;-1.90;95.20
28530;DHT22;15737;49.760;6.632;2023-02-27T05:14:15;-1.90;95.30
28530;DHT22;15737;49.760;6.632;2023-02-27T05:19:13;-1.80;95.40
28530;DHT22;15737;49.760;6.632;2023-02-27T05:22:01;-1.80;95.40
28530;DHT22;15737;49.760;6.632;2023-02-27T05:24:32;-1.90;95.40
28530;DHT22;15737;49.760;6.632;2023-02-27T05:27:19;-1.90;95.50
28530;DHT22;15737;49.760;6.632;2023-02-27T05:29:59;-1.90;95.60
28530;DHT22;15737;49.760;6.632;2023-02-27T05:37:59;-1.90;95.80
28530;DHT22;15737;49.760;6.632;2023-02-27T05:40:31;-1.90;95.80
28530;DHT22;15737;49.760;6.632;2023-02-27T05:43:06;-1.90;95.80
28530;DHT22;15737;49.760;6.632;2023-02-27T05:45:36;-1.90;95.90
28530;DHT22;15737;49.760;6.632;2023-02-27T05:48:25;-2.00;95.80
28530;DHT22;15737;49.760;6.632;2023-02-27T05:50:52;-2.00;95.90
28530;DHT22;15737;49.760;6.632;2023-02-27T05:53:20;-2.00;96.00
28530;DHT22;15737;49.760;6.632;2023-02-27T05:55:50;-2.00;96.00
28530;DHT22;15737;49.760;6.632;2023-02-27T05:58:34;-2.00;96.10
28530;DHT22;15737;49.760;6.632;2023-02-27T06:01:02;-2.00;96.10
28530;DHT22;15737;49.760;6.632;2023-02-27T06:03:30;-2.00;96.10
28530;DHT22;15737;49.760;6.632;2023-02-27T06:05:58;-2.00;96.10
28530;DHT22;15737;49.760;6.632;2023-02-27T06:08:25;-2.00;96.00
28530;DHT22;15737;49.760;6.632;2023-02-27T06:10:51;-2.00;96.10
28530;DHT22;15737;49.760;6.632;2023-02-27T06:13:17;-1.90;96.10
28530;DHT22;15737;49.760;6.632;2023-02-27T06:15:44;-1.90;96.20
28530;DHT22;15737;49.760;6.632;2023-02-27T06:18:13;-1.90;96.10
28530;DHT22;15737;49.760;6.632;2023-02-27T06:20:40;-1.90;96.10
28530;DHT22;15737;49.760;6.632;2023-02-27T06:23:06;-1.90;96.20
28530;DHT22;15737;49.760;6.632;2023-02-27T06:25:32;-1.90;96.10
28530;DHT22;15737;49.760;6.632;2023-02-27T06:27:58;-1.90;96.00
28530;DHT22;15737;49.760;6.632;2023-02-27T06:30:23;-1.80;96.00
28530;DHT22;15737;49.760;6.632;2023-02-27T06:32:49;-1.80;95.90
28530;DHT22;15737;49.760;6.632;2023-02-27T06:35:14;-1.70;96.00
28530;DHT22;15737;49.760;6.632;2023-02-27T06:37:40;-0.70;95.70
28530;DHT22;15737;49.760;6.632;2023-02-27T06:40:07;0.60;94.00
28530;DHT22;15737;49.760;6.632;2023-02-27T06:42:40;1.90;92.30
28530;DHT22;15737;49.760;6.632;2023-02-27T06:45:06;3.10;90.30
28530;DHT22;15737;49.760;6.632;2023-02-27T06:47:32;4.00;87.80
28530;DHT22;15737;49.760;6.632;2023-02-27T06:49:58;4.80;85.00
28530;DHT22;15737;49.760;6.632;2023-02-27T06:52:24;5.60;82.90
28530;DHT22;15737;49.760;6.632;2023-02-27T06:54:50;6.40;79.80
28530;DHT22;15737;49.760;6.632;2023-02-27T06:57:15;6.90;77.10
28530;DHT22;15737;49.760;6.632;2023-02-27T06:59:41;7.30;75.30
28530;DHT22;15737;49.760;6.632;2023-02-27T07:02:09;7.60;74.80
28530;DHT22;15737;49.760;6.632;2023-02-27T07:04:35;8.20;72.40
28530;DHT22;15737;49.760;6.632;2023-02-27T07:07:00;8.20;70.10
28530;DHT22;15737;49.760;6.632;2023-02-27T07:09:26;8.30;70.40
28530;DHT22;15737;49.760;6.632;2023-02-27T07:11:52;9.40;68.40
28530;DHT22;15737;49.760;6.632;2023-02-27T07:14:18;10.40;63.40
28530;DHT22;15737;49.760;6.632;2023-02-27T07:16:43;11.60;61.90
28530;DHT22;15737;49.760;6.632;2023-02-27T07:19:11;12.30;59.80
28530;DHT22;15737;49.760;6.632;2023-02-27T07:21:36;12.40;57.60
28530;DHT22;15737;49.760;6.632;2023-02-27T07:24:02;11.30;57.70
28530;DHT22;15737;49.760;6.632;2023-02-27T07:26:29;11.50;56.80
28530;DHT22;15737;49.760;6.632;2023-02-27T07:28:54;10.50;57.00
28530;DHT22;15737;49.760;6.632;2023-02-27T07:31:20;11.20;57.80
28530;DHT22;15737;49.760;6.632;2023-02-27T07:33:46;12.10;55.90
28530;DHT22;15737;49.760;6.632;2023-02-27T07:36:11;12.80;55.00
28530;DHT22;15737;49.760;6.632;2023-02-27T07:38:36;13.30;53.20
28530;DHT22;15737;49.760;6.632;2023-02-27T07:41:02;13.30;52.90
28530;DHT22;15737;49.760;6.632;2023-02-27T07:43:27;13.70;51.80
28530;DHT22;15737;49.760;6.632;2023-02-27T07:45:53;13.20;51.50
28530;DHT22;15737;49.760;6.632;2023-02-27T07:48:33;12.60;51.60
28530;DHT22;15737;49.760;6.632;2023-02-27T07:50:59;12.70;52.30
28530;DHT22;15737;49.760;6.632;2023-02-27T07:53:25;13.40;51.50
28530;DHT22;15737;49.760;6.632;2023-02-27T07:55:51;13.90;50.20
28530;DHT22;15737;49.760;6.632;2023-02-27T07:58:16;14.20;49.10
28530;DHT22;15737;49.760;6.632;2023-02-27T08:00:42;13.60;49.00
28530;DHT22;15737;49.760;6.632;2023-02-27T08:03:08;13.90;49.30
28530;DHT22;15737;49.760;6.632;2023-02-27T08:05:35;14.10;49.40
28530;DHT22;15737;49.760;6.632;2023-02-27T08:08:01;14.90;47.70
28530;DHT22;15737;49.760;6.632;2023-02-27T08:10:26;14.70;47.60
28530;DHT22;15737;49.760;6.632;2023-02-27T08:12:52;15.40;47.20
28530;DHT22;15737;49.760;6.632;2023-02-27T08:15:18;15.90;45.80
28530;DHT22;15737;49.760;6.632;2023-02-27T08:17:44;15.10;45.80
28530;DHT22;15737;49.760;6.632;2023-02-27T08:20:10;14.30;46.10
28530;DHT22;15737;49.760;6.632;2023-02-27T08:22:37;14.20;46.70
28530;DHT22;15737;49.760;6.632;2023-02-27T08:25:04;15.90;45.80
28530;DHT22;15737;49.760;6.632;2023-02-27T08:27:32;17.40;43.80
28530;DHT22;15737;49.760;6.632;2023-02-27T08:29:58;18.10;43.00
28530;DHT22;15737;49.760;6.632;2023-02-27T08:32:25;18.10;42.50
28530;DHT22;15737;49.760;6.632;2023-02-27T08:34:51;17.80;42.20
28530;DHT22;15737;49.760;6.632;2023-02-27T08:37:17;17.40;42.50
28530;DHT22;15737;49.760;6.632;2023-02-27T08:39:42;17.20;42.80
28530;DHT22;15737;49.760;6.632;2023-02-27T08:42:08;17.30;42.50
28530;DHT22;15737;49.760;6.632;2023-02-27T08:44:33;17.00;42.50
28530;DHT22;15737;49.760;6.632;2023-02-27T08:46:59;17.00;42.70
28530;DHT22;15737;49.760;6.632;2023-02-27T08:49:24;17.90;42.20
28530;DHT22;15737;49.760;6.632;2023-02-27T08:51:51;18.30;42.00
28530;DHT22;15737;49.760;6.632;2023-02-27T08:54:17;19.30;41.30
28530;DHT22;15737;49.760;6.632;2023-02-27T08:56:43;18.80;40.30
28530;DHT22;15737;49.760;6.632;2023-02-27T08:59:09;18.40;41.50
28530;DHT22;15737;49.760;6.632;2023-02-27T09:01:35;18.50;41.00
28530;DHT22;15737;49.760;6.632;2023-02-27T09:04:04;19.10;40.50
28530;DHT22;15737;49.760;6.632;2023-02-27T09:06:32;19.60;40.10
28530;DHT22;15737;49.760;6.632;2023-02-27T09:08:59;19.80;39.20
28530;DHT22;15737;49.760;6.632;2023-02-27T09:11:24;18.70;39.80
28530;DHT22;15737;49.760;6.632;2023-02-27T09:13:50;18.30;40.10
28530;DHT22;15737;49.760;6.632;2023-02-27T09:16:18;18.30;39.70
28530;DHT22;15737;49.760;6.632;2023-02-27T09:18:43;17.50;39.80
28530;DHT22;15737;49.760;6.632;2023-02-27T09:21:09;16.80;40.30
28530;DHT22;15737;49.760;6.632;2023-02-27T09:23:35;17.00;40.50
28530;DHT22;15737;49.760;6.632;2023-02-27T09:26:00;17.30;40.00
28530;DHT22;15737;49.760;6.632;2023-02-27T09:28:26;16.80;39.70
28530;DHT22;15737;49.760;6.632;2023-02-27T09:30:51;16.40;40.00
28530;DHT22;15737;49.760;6.632;2023-02-27T09:33:17;15.70;40.20
28530;DHT22;15737;49.760;6.632;2023-02-27T09:35:43;15.40;40.40
28530;DHT22;15737;49.760;6.632;2023-02-27T09:38:08;15.10;40.40
28530;DHT22;15737;49.760;6.632;2023-02-27T09:40:39;15.10;41.10
28530;DHT22;15737;49.760;6.632;2023-02-27T09:43:22;15.10;40.80
28530;DHT22;15737;49.760;6.632;2023-02-27T09:45:53;15.30;40.50
28530;DHT22;15737;49.760;6.632;2023-02-27T09:48:31;16.00;40.20
28530;DHT22;15737;49.760;6.632;2023-02-27T09:50:59;16.60;40.40
28530;DHT22;15737;49.760;6.632;2023-02-27T09:53:43;17.20;39.50
28530;DHT22;15737;49.760;6.632;2023-02-27T09:56:22;16.80;39.70
28530;DHT22;15737;49.760;6.632;2023-02-27T10:06:57;16.10;39.70
28530;DHT22;15737;49.760;6.632;2023-02-27T10:09:49;15.70;40.60
28530;DHT22;15737;49.760;6.632;2023-02-27T10:12:41;16.00;40.30
28530;DHT22;15737;49.760;6.632;2023-02-27T10:17:57;15.30;41.30
28530;DHT22;15737;49.760;6.632;2023-02-27T10:20:30;15.60;40.90
28530;DHT22;15737;49.760;6.632;2023-02-27T10:22:59;15.20;40.90
28530;DHT22;15737;49.760;6.632;2023-02-27T10:25:26;15.60;41.10
28530;DHT22;15737;49.760;6.632;2023-02-27T10:27:55;16.20;41.10
28530;DHT22;15737;49.760;6.632;2023-02-27T10:30:23;16.90;40.40
28530;DHT22;15737;49.760;6.632;2023-02-27T10:32:55;16.90;40.90
28530;DHT22;15737;49.760;6.632;2023-02-27T10:35:29;17.00;40.70
28530;DHT22;15737;49.760;6.632;2023-02-27T10:38:18;17.10;41.10
28530;DHT22;15737;49.760;6.632;2023-02-27T10:40:45;17.20;40.50
28530;DHT22;15737;49.760;6.632;2023-02-27T10:43:16;16.90;40.90
28530;DHT22;15737;49.760;6.632;2023-02-27T10:45:43;16.40;40.80
28530;DHT22;15737;49.760;6.632;2023-02-27T10:48:09;15.70;41.30
28530;DHT22;15737;49.760;6.632;2023-02-27T10:50:38;15.00;41.70
28530;DHT22;15737;49.760;6.632;2023-02-27T10:53:17;14.50;42.60
28530;DHT22;15737;49.760;6.632;2023-02-27T10:55:46;13.40;42.40
28530;DHT22;15737;49.760;6.632;2023-02-27T10:58:18;13.00;43.50
28530;DHT22;15737;49.760;6.632;2023-02-27T11:00:57;12.10;43.40
28530;DHT22;15737;49.760;6.632;2023-02-27T11:05:59;10.80;45.00
28530;DHT22;15737;49.760;6.632;2023-02-27T11:08:28;10.80;45.40
28530;DHT22;15737;49.760;6.632;2023-02-27T11:11:16;11.40;45.20
28530;DHT22;15737;49.760;6.632;2023-02-27T11:13:46;11.70;45.10
28530;DHT22;15737;49.760;6.632;2023-02-27T11:16:13;12.30;44.70
28530;DHT22;15737;49.760;6.632;2023-02-27T11:18:41;12.50;44.20
28530;DHT22;15737;49.760;6.632;2023-02-27T11:23:35;11.80;44.00
28530;DHT22;15737;49.760;6.632;2023-02-27T11:26:10;11.70;44.40
28530;DHT22;15737;49.760;6.632;2023-02-27T11:28:39;11.00;44.90
28530;DHT22;15737;49.760;6.632;2023-02-27T11:31:15;10.80;45.60
28530;DHT22;15737;49.760;6.632;2023-02-27T11:33:57;11.10;45.90
28530;DHT22;15737;49.760;6.632;2023-02-27T11:36:53;11.50;45.60
28530;DHT22;15737;49.760;6.632;2023-02-27T11:39:25;12.00;45.30
28530;DHT22;15737;49.760;6.632;2023-02-27T11:41:52;12.60;45.30
28530;DHT22;15737;49.760;6.632;2023-02-27T11:44:23;13.40;44.80
28530;DHT22;15737;49.760;6.632;2023-02-27T11:46:49;13.30;44.30
28530;DHT22;15737;49.760;6.632;2023-02-27T11:49:32;12.80;44.90
28530;DHT22;15737;49.760;6.632;2023-02-27T11:52:16;13.40;45.00
28530;DHT22;15737;49.760;6.632;2023-02-27T11:54:57;12.60;44.70
28530;DHT22;15737;49.760;6.632;2023-02-27T11:57:34;11.70;45.40
28530;DHT22;15737;49.760;6.632;2023-02-27T12:00:07;11.20;46.40
28530;DHT22;15737;49.760;6.632;2023-02-27T12:02:57;11.30;46.40
28530;DHT22;15737;49.760;6.632;2023-02-27T12:05:35;11.80;46.70
28530;DHT22;15737;49.760;6.632;2023-02-27T12:08:31;12.00;46.20
28530;DHT22;15737;49.760;6.632;2023-02-27T12:11:06;12.10;46.10
28530;DHT22;15737;49.760;6.632;2023-02-27T12:13:39;12.00;46.00
28530;DHT22;15737;49.760;6.632;2023-02-27T12:18:51;12.60;46.00
28530;DHT22;15737;49.760;6.632;2023-02-27T12:21:21;12.30;46.20
28530;DHT22;15737;49.760;6.632;2023-02-27T12:29:48;11.20;47.10
28530;DHT22;15737;49.760;6.632;2023-02-27T12:35:16;10.90;47.70
28530;DHT22;15737;49.760;6.632;2023-02-27T12:37:43;11.00;48.10
28530;DHT22;15737;49.760;6.632;2023-02-27T12:40:14;11.30;47.70
28530;DHT22;15737;49.760;6.632;2023-02-27T12:54:02;11.70;46.40
28530;DHT22;15737;49.760;6.632;2023-02-27T12:59:30;11.20;47.00
28530;DHT22;15737;49.760;6.632;2023-02-27T13:04:45;11.80;47.80
28530;DHT22;15737;49.760;6.632;2023-02-27T13:07:25;12.10;47.30
28530;DHT22;15737;49.760;6.632;2023-02-27T13:09:57;11.60;46.20
28530;DHT22;15737;49.760;6.632;2023-02-27T13:12:37;11.20;47.00
28530;DHT22;15737;49.760;6.632;2023-02-27T13:15:20;11.00;47.30
28530;DHT22;15737;49.760;6.632;2023-02-27T13:17:53;11.00;47.30
28530;DHT22;15737;49.760;6.632;2023-02-27T13:25:33;10.80;47.90
28530;DHT22;15737;49.760;6.632;2023-02-27T13:28:06;11.30;47.70
28530;DHT22;15737;49.760;6.632;2023-02-27T13:30:42;11.50;47.60
28530;DHT22;15737;49.760;6.632;2023-02-27T13:35:53;10.50;47.10
28530;DHT22;15737;49.760;6.632;2023-02-27T13:38:40;10.20;47.70
28530;DHT22;15737;49.760;6.632;2023-02-27T13:46:43;10.80;47.70
28530;DHT22;15737;49.760;6.632;2023-02-27T13:57:05;10.80;47.60
28530;DHT22;15737;49.760;6.632;2023-02-27T13:59:39;10.60;46.90
28530;DHT22;15737;49.760;6.632;2023-02-27T14:02:34;10.10;47.30
28530;DHT22;15737;49.760;6.632;2023-02-27T14:05:03;9.80;48.50
28530;DHT22;15737;49.760;6.632;2023-02-27T14:07:53;10.00;48.30
28530;DHT22;15737;49.760;6.632;2023-02-27T14:10:22;10.80;47.60
28530;DHT22;15737;49.760;6.632;2023-02-27T14:12:49;10.60;47.20
28530;DHT22;15737;49.760;6.632;2023-02-27T14:17:47;9.90;48.70
28530;DHT22;15737;49.760;6.632;2023-02-27T14:22:42;9.80;48.90
28530;DHT22;15737;49.760;6.632;2023-02-27T14:28:29;8.90;49.00
28530;DHT22;15737;49.760;6.632;2023-02-27T14:31:01;7.90;49.70
28530;DHT22;15737;49.760;6.632;2023-02-27T14:33:46;7.50;50.30
28530;DHT22;15737;49.760;6.632;2023-02-27T14:38:46;8.10;50.00
28530;DHT22;15737;49.760;6.632;2023-02-27T14:41:22;8.40;49.80
28530;DHT22;15737;49.760;6.632;2023-02-27T14:43:53;8.60;49.30
28530;DHT22;15737;49.760;6.632;2023-02-27T14:46:32;8.00;49.30
28530;DHT22;15737;49.760;6.632;2023-02-27T14:49:33;8.10;50.10
28530;DHT22;15737;49.760;6.632;2023-02-27T14:52:19;8.90;49.70
28530;DHT22;15737;49.760;6.632;2023-02-27T14:54:45;9.30;48.90
28530;DHT22;15737;49.760;6.632;2023-02-27T14:57:19;9.00;48.60
28530;DHT22;15737;49.760;6.632;2023-02-27T14:59:52;8.50;49.10
28530;DHT22;15737;49.760;6.632;2023-02-27T15:04:48;8.10;49.90
28530;DHT22;15737;49.760;6.632;2023-02-27T15:07:19;7.70;49.70
28530;DHT22;15737;49.760;6.632;2023-02-27T15:09:50;7.40;50.10
28530;DHT22;15737;49.760;6.632;2023-02-27T15:12:19;7.40;50.50
28530;DHT22;15737;49.760;6.632;2023-02-27T15:14:49;7.10;50.70
28530;DHT22;15737;49.760;6.632;2023-02-27T15:17:26;6.90;51.10
28530;DHT22;15737;49.760;6.632;2023-02-27T15:19:55;7.00;50.90
28530;DHT22;15737;49.760;6.632;2023-02-27T15:22:24;7.30;51.10
28530;DHT22;15737;49.760;6.632;2023-02-27T15:24:53;7.70;50.80
28530;DHT22;15737;49.760;6.632;2023-02-27T15:27:22;7.70;50.70
28530;DHT22;15737;49.760;6.632;2023-02-27T15:29:50;7.80;50.80
28530;DHT22;15737;49.760;6.632;2023-02-27T15:32:40;7.50;50.80
28530;DHT22;15737;49.760;6.632;2023-02-27T15:35:19;7.20;51.30
28530;DHT22;15737;49.760;6.632;2023-02-27T15:37:54;6.70;51.40
28530;DHT22;15737;49.760;6.632;2023-02-27T15:40:26;6.40;51.80
28530;DHT22;15737;49.760;6.632;2023-02-27T15:42:53;6.40;52.20
28530;DHT22;15737;49.760;6.632;2023-02-27T15:45:21;6.60;52.30
28530;DHT22;15737;49.760;6.632;2023-02-27T15:47:48;7.00;52.20
28530;DHT22;15737;49.760;6.632;2023-02-27T15:52:49;7.10;51.80
28530;DHT22;15737;49.760;6.632;2023-02-27T15:55:21;7.00;52.00
28530;DHT22;15737;49.760;6.632;2023-02-27T15:57:48;7.00;52.00
28530;DHT22;15737;49.760;6.632;2023-02-27T16:00:18;6.80;51.90
28530;DHT22;15737;49.760;6.632;2023-02-27T16:02:47;6.50;52.40
28530;DHT22;15737;49.760;6.632;2023-02-27T16:05:35;6.50;52.50
28530;DHT22;15737;49.760;6.632;2023-02-27T16:08:03;6.30;52.50
28530;DHT22;15737;49.760;6.632;2023-02-27T16:10:38;6.00;52.90
28530;DHT22;15737;49.760;6.632;2023-02-27T16:16:20;5.70;53.60
28530;DHT22;15737;49.760;6.632;2023-02-27T16:18:47;5.90;53.30
28530;DHT22;15737;49.760;6.632;2023-02-27T16:21:18;5.90;53.10
28530;DHT22;15737;49.760;6.632;2023-02-27T16:23:45;5.70;53.10
28530;DHT22;15737;49.760;6.632;2023-02-27T16:26:21;5.60;53.10
28530;DHT22;15737;49.760;6.632;2023-02-27T16:31:39;5.20;53.20
28530;DHT22;15737;49.760;6.632;2023-02-27T16:36:40;5.00;53.80
28530;DHT22;15737;49.760;6.632;2023-02-27T16:39:11;4.90;54.00
28530;DHT22;15737;49.760;6.632;2023-02-27T16:41:37;4.80;54.30
28530;DHT22;15737;49.760;6.632;2023-02-27T16:44:03;4.80;54.50
28530;DHT22;15737;49.760;6.632;2023-02-27T16:46:28;4.70;54.60
28530;DHT22;15737;49.760;6.632;2023-02-27T16:48:56;4.50;54.50
28530;DHT22;15737;49.760;6.632;2023-02-27T16:51:25;4.40;54.50
28530;DHT22;15737;49.760;6.632;2023-02-27T16:53:53;4.40;54.70
28530;DHT22;15737;49.760;6.632;2023-02-27T16:56:19;4.30;54.80
28530;DHT22;15737;49.760;6.632;2023-02-27T16:58:47;4.30;54.70
28530;DHT22;15737;49.760;6.632;2023-02-27T17:01:12;4.30;54.70
28530;DHT22;15737;49.760;6.632;2023-02-27T17:03:39;4.30;54.90
28530;DHT22;15737;49.760;6.632;2023-02-27T17:06:05;4.30;54.80
28530;DHT22;15737;49.760;6.632;2023-02-27T17:08:32;4.30;54.70
28530;DHT22;15737;49.760;6.632;2023-02-27T17:10:57;4.30;54.70
28530;DHT22;15737;49.760;6.632;2023-02-27T17:13:24;4.20;54.60
28530;DHT22;15737;49.760;6.632;2023-02-27T17:15:49;4.10;54.70
28530;DHT22;15737;49.760;6.632;2023-02-27T17:18:15;4.00;55.00
28530;DHT22;15737;49.760;6.632;2023-02-27T17:20:41;3.90;55.00
28530;DHT22;15737;49.760;6.632;2023-02-27T17:23:09;3.80;55.10
28530;DHT22;15737;49.760;6.632;2023-02-27T17:25:35;3.80;55.40
28530;DHT22;15737;49.760;6.632;2023-02-27T17:28:00;3.70;55.70
28530;DHT22;15737;49.760;6.632;2023-02-27T17:30:26;3.70;55.80
28530;DHT22;15737;49.760;6.632;2023-02-27T17:32:51;3.70;55.80
28530;DHT22;15737;49.760;6.632;2023-02-27T17:35:17;3.70;55.90
28530;DHT22;15737;49.760;6.632;2023-02-27T17:37:42;3.70;55.90
28530;DHT22;15737;49.760;6.632;2023-02-27T17:40:10;3.70;56.00
28530;DHT22;15737;49.760;6.632;2023-02-27T17:42:37;3.70;56.00
28530;DHT22;15737;49.760;6.632;2023-02-27T17:45:04;3.70;56.00
28530;DHT22;15737;49.760;6.632;2023-02-27T17:47:31;3.60;56.00
28530;DHT22;15737;49.760;6.632;2023-02-27T17:49:57;3.60;55.90
28530;DHT22;15737;49.760;6.632;2023-02-27T17:52:22;3.50;56.00
28530;DHT22;15737;49.760;6.632;2023-02-27T17:54:48;3.50;56.00
28530;DHT22;15737;49.760;6.632;2023-02-27T17:57:14;3.40;55.90
28530;DHT22;15737;49.760;6.632;2023-02-27T17:59:39;3.30;56.00
28530;DHT22;15737;49.760;6.632;2023-02-27T18:02:06;3.20;56.10
28530;DHT22;15737;49.760;6.632;2023-02-27T18:04:33;3.20;56.20
28530;DHT22;15737;49.760;6.632;2023-02-27T18:06:59;3.10;56.10
28530;DHT22;15737;49.760;6.632;2023-02-27T18:09:25;3.00;56.00
28530;DHT22;15737;49.760;6.632;2023-02-27T18:11:50;3.00;55.70
28530;DHT22;15737;49.760;6.632;2023-02-27T18:14:16;3.00;55.80
28530;DHT22;15737;49.760;6.632;2023-02-27T18:16:41;2.90;55.90
28530;DHT22;15737;49.760;6.632;2023-02-27T18:19:08;2.80;56.20